sensor_id;sensor_type;location;lat;lon;timestamp;P1;durP1;ratioP1;P2;durP2;ratioP2
45848;SDS011;31567;54.600;9.842;2023-03-20T00:03:27;16.90;;;9.35;;
45848;SDS011;31567;54.600;9.842;2023-03-20T00:07:07;16.13;;;10.05;;
45848;SDS011;31567;54.600;9.842;2023-03-20T00:10:50;11.05;;;8.48;;
45848;SDS011;31567;54.600;9.842;2023-03-20T00:14:30;16.23;;;9.98;;
45848;SDS011;31567;54.600;9.842;2023-03-20T00:18:20;11.70;;;9.15;;
45848;SDS011;31567;54.600;9.842;2023-03-20T00:22:01;10.15;;;7.10;;
45848;SDS011;31567;54.600;9.842;2023-03-20T00:25:40;5.15;;;4.15;;
45848;SDS011;31567;54.600;9.842;2023-03-20T00:29:22;4.03;;;3.60;;
45848;SDS011;31567;54.600;9.842;2023-03-20T00:33:04;4.10;;;3.50;;
45848;SDS011;31567;54.600;9.842;2023-03-20T00:36:48;3.80;;;3.17;;
45848;SDS011;31567;54.600;9.842;2023-03-20T00:40:29;2.60;;;2.40;;
45848;SDS011;31567;54.600;9.842;2023-03-20T00:48:00;2.45;;;2.25;;
45848;SDS011;31567;54.600;9.842;2023-03-20T00:51:41;2.85;;;2.60;;
45848;SDS011;31567;54.600;9.842;2023-03-20T00:55:22;3.75;;;3.17;;
45848;SDS011;31567;54.600;9.842;2023-03-20T00:59:05;4.10;;;3.70;;
45848;SDS011;31567;54.600;9.842;2023-03-20T01:02:45;3.67;;;3.28;;
45848;SDS011;31567;54.600;9.842;2023-03-20T01:06:25;4.32;;;3.83;;
45848;SDS011;31567;54.600;9.842;2023-03-20T01:10:07;5.63;;;3.95;;
45848;SDS011;31567;54.600;9.842;2023-03-20T01:13:47;3.97;;;3.28;;
45848;SDS011;31567;54.600;9.842;2023-03-20T01:17:27;2.75;;;2.47;;
45848;SDS011;31567;54.600;9.842;2023-03-20T01:21:08;2.33;;;2.10;;
45848;SDS011;31567;54.600;9.842;2023-03-20T01:24:48;3.47;;;2.20;;
45848;SDS011;31567;54.600;9.842;2023-03-20T01:28:27;2.33;;;2.03;;
45848;SDS011;31567;54.600;9.842;2023-03-20T01:32:18;3.97;;;2.70;;
45848;SDS011;31567;54.600;9.842;2023-03-20T01:35:57;3.65;;;2.17;;
45848;SDS011;31567;54.600;9.842;2023-03-20T01:39:37;2.72;;;2.30;;
45848;SDS011;31567;54.600;9.842;2023-03-20T01:43:17;2.72;;;2.13;;
45848;SDS011;31567;54.600;9.842;2023-03-20T01:47:00;3.30;;;2.80;;
45848;SDS011;31567;54.600;9.842;2023-03-20T01:50:41;3.38;;;2.85;;
45848;SDS011;31567;54.600;9.842;2023-03-20T01:54:26;2.67;;;2.25;;
45848;SDS011;31567;54.600;9.842;2023-03-20T01:58:12;2.80;;;2.60;;
45848;SDS011;31567;54.600;9.842;2023-03-20T02:01:59;3.10;;;2.70;;
45848;SDS011;31567;54.600;9.842;2023-03-20T02:05:39;3.40;;;2.47;;
45848;SDS011;31567;54.600;9.842;2023-03-20T02:09:19;5.13;;;3.03;;
45848;SDS011;31567;54.600;9.842;2023-03-20T02:12:58;3.85;;;2.53;;
45848;SDS011;31567;54.600;9.842;2023-03-20T02:16:40;2.78;;;2.47;;
45848;SDS011;31567;54.600;9.842;2023-03-20T02:20:22;3.35;;;2.72;;
45848;SDS011;31567;54.600;9.842;2023-03-20T02:24:36;4.50;;;2.92;;
45848;SDS011;31567;54.600;9.842;2023-03-20T02:44:45;4.70;;;3.80;;
45848;SDS011;31567;54.600;9.842;2023-03-20T02:56:42;3.35;;;2.72;;
45848;SDS011;31567;54.600;9.842;2023-03-20T03:00:39;2.22;;;2.03;;
45848;SDS011;31567;54.600;9.842;2023-03-20T03:04:29;2.05;;;1.85;;
45848;SDS011;31567;54.600;9.842;2023-03-20T03:08:13;2.30;;;1.90;;
45848;SDS011;31567;54.600;9.842;2023-03-20T03:11:58;1.63;;;1.50;;
45848;SDS011;31567;54.600;9.842;2023-03-20T03:15:46;1.60;;;1.50;;
45848;SDS011;31567;54.600;9.842;2023-03-20T03:19:29;2.08;;;1.63;;
45848;SDS011;31567;54.600;9.842;2023-03-20T03:23:14;3.38;;;1.90;;
45848;SDS011;31567;54.600;9.842;2023-03-20T03:27:33;1.70;;;1.60;;
45848;SDS011;31567;54.600;9.842;2023-03-20T03:31:16;1.73;;;1.63;;
45848;SDS011;31567;54.600;9.842;2023-03-20T03:34:57;1.80;;;1.63;;
45848;SDS011;31567;54.600;9.842;2023-03-20T03:38:44;2.17;;;2.03;;
45848;SDS011;31567;54.600;9.842;2023-03-20T03:42:32;1.95;;;1.63;;
45848;SDS011;31567;54.600;9.842;2023-03-20T03:46:38;3.00;;;2.30;;
45848;SDS011;31567;54.600;9.842;2023-03-20T03:50:25;2.35;;;2.13;;
45848;SDS011;31567;54.600;9.842;2023-03-20T03:54:13;2.20;;;1.85;;
45848;SDS011;31567;54.600;9.842;2023-03-20T03:58:10;5.88;;;2.60;;
45848;SDS011;31567;54.600;9.842;2023-03-20T04:01:56;2.55;;;1.80;;
45848;SDS011;31567;54.600;9.842;2023-03-20T04:05:37;2.38;;;2.17;;
45848;SDS011;31567;54.600;9.842;2023-03-20T04:09:21;2.55;;;2.35;;
45848;SDS011;31567;54.600;9.842;2023-03-20T04:13:00;2.80;;;2.47;;
45848;SDS011;31567;54.600;9.842;2023-03-20T04:16:40;3.30;;;2.50;;
45848;SDS011;31567;54.600;9.842;2023-03-20T04:20:20;4.22;;;2.65;;
45848;SDS011;31567;54.600;9.842;2023-03-20T04:23:59;2.90;;;2.03;;
45848;SDS011;31567;54.600;9.842;2023-03-20T04:27:39;2.53;;;2.33;;
45848;SDS011;31567;54.600;9.842;2023-03-20T04:31:19;2.97;;;2.30;;
45848;SDS011;31567;54.600;9.842;2023-03-20T04:34:59;3.60;;;3.22;;
45848;SDS011;31567;54.600;9.842;2023-03-20T04:38:38;6.78;;;4.57;;
45848;SDS011;31567;54.600;9.842;2023-03-20T04:42:18;9.60;;;6.95;;
45848;SDS011;31567;54.600;9.842;2023-03-20T04:45:57;12.90;;;9.13;;
45848;SDS011;31567;54.600;9.842;2023-03-20T04:49:37;13.40;;;7.40;;
45848;SDS011;31567;54.600;9.842;2023-03-20T04:53:17;11.82;;;8.00;;
45848;SDS011;31567;54.600;9.842;2023-03-20T04:56:56;17.00;;;9.32;;
45848;SDS011;31567;54.600;9.842;2023-03-20T05:00:36;15.68;;;8.80;;
45848;SDS011;31567;54.600;9.842;2023-03-20T05:04:16;18.35;;;8.25;;
45848;SDS011;31567;54.600;9.842;2023-03-20T05:07:55;18.23;;;7.40;;
45848;SDS011;31567;54.600;9.842;2023-03-20T05:11:35;11.02;;;6.15;;
45848;SDS011;31567;54.600;9.842;2023-03-20T05:15:15;15.20;;;6.90;;
45848;SDS011;31567;54.600;9.842;2023-03-20T05:18:54;11.75;;;6.47;;
45848;SDS011;31567;54.600;9.842;2023-03-20T05:22:34;14.32;;;5.72;;
45848;SDS011;31567;54.600;9.842;2023-03-20T05:26:14;13.00;;;5.75;;
45848;SDS011;31567;54.600;9.842;2023-03-20T05:29:53;14.70;;;6.20;;
45848;SDS011;31567;54.600;9.842;2023-03-20T05:33:33;10.43;;;6.75;;
45848;SDS011;31567;54.600;9.842;2023-03-20T05:37:13;18.90;;;7.72;;
45848;SDS011;31567;54.600;9.842;2023-03-20T05:40:56;11.73;;;6.82;;
45848;SDS011;31567;54.600;9.842;2023-03-20T05:44:36;14.45;;;7.10;;
45848;SDS011;31567;54.600;9.842;2023-03-20T05:48:16;12.70;;;6.78;;
45848;SDS011;31567;54.600;9.842;2023-03-20T05:51:56;9.88;;;6.50;;
45848;SDS011;31567;54.600;9.842;2023-03-20T05:55:35;12.90;;;7.20;;
45848;SDS011;31567;54.600;9.842;2023-03-20T05:59:15;17.55;;;7.53;;
45848;SDS011;31567;54.600;9.842;2023-03-20T06:02:54;12.73;;;6.85;;
45848;SDS011;31567;54.600;9.842;2023-03-20T06:06:34;15.88;;;7.80;;
45848;SDS011;31567;54.600;9.842;2023-03-20T06:10:16;11.15;;;7.40;;
45848;SDS011;31567;54.600;9.842;2023-03-20T06:13:57;13.15;;;7.93;;
45848;SDS011;31567;54.600;9.842;2023-03-20T06:17:37;12.50;;;7.72;;
45848;SDS011;31567;54.600;9.842;2023-03-20T06:21:16;13.85;;;7.50;;
45848;SDS011;31567;54.600;9.842;2023-03-20T06:24:56;14.65;;;7.78;;
45848;SDS011;31567;54.600;9.842;2023-03-20T06:28:36;10.63;;;6.82;;
45848;SDS011;31567;54.600;9.842;2023-03-20T06:32:16;14.13;;;7.68;;
45848;SDS011;31567;54.600;9.842;2023-03-20T06:35:55;15.55;;;8.27;;
45848;SDS011;31567;54.600;9.842;2023-03-20T06:39:35;12.57;;;6.82;;
45848;SDS011;31567;54.600;9.842;2023-03-20T06:43:15;14.40;;;6.60;;
45848;SDS011;31567;54.600;9.842;2023-03-20T06:46:54;13.48;;;5.85;;
45848;SDS011;31567;54.600;9.842;2023-03-20T06:50:34;11.15;;;5.28;;
45848;SDS011;31567;54.600;9.842;2023-03-20T06:54:14;7.70;;;4.63;;
45848;SDS011;31567;54.600;9.842;2023-03-20T06:57:53;8.90;;;4.90;;
45848;SDS011;31567;54.600;9.842;2023-03-20T07:01:33;11.48;;;6.00;;
45848;SDS011;31567;54.600;9.842;2023-03-20T07:05:14;12.02;;;5.57;;
45848;SDS011;31567;54.600;9.842;2023-03-20T07:08:53;12.57;;;6.47;;
45848;SDS011;31567;54.600;9.842;2023-03-20T07:12:33;11.10;;;5.47;;
45848;SDS011;31567;54.600;9.842;2023-03-20T07:16:12;12.32;;;5.85;;
45848;SDS011;31567;54.600;9.842;2023-03-20T07:19:52;14.38;;;6.18;;
45848;SDS011;31567;54.600;9.842;2023-03-20T07:23:32;10.77;;;6.10;;
45848;SDS011;31567;54.600;9.842;2023-03-20T07:27:12;15.70;;;6.35;;
45848;SDS011;31567;54.600;9.842;2023-03-20T07:30:52;15.25;;;6.65;;
45848;SDS011;31567;54.600;9.842;2023-03-20T07:34:32;11.73;;;5.60;;
45848;SDS011;31567;54.600;9.842;2023-03-20T07:38:11;12.10;;;6.35;;
45848;SDS011;31567;54.600;9.842;2023-03-20T07:41:51;12.07;;;6.35;;
45848;SDS011;31567;54.600;9.842;2023-03-20T07:45:31;14.88;;;7.13;;
45848;SDS011;31567;54.600;9.842;2023-03-20T07:49:10;13.43;;;6.20;;
45848;SDS011;31567;54.600;9.842;2023-03-20T07:52:50;13.57;;;6.47;;
45848;SDS011;31567;54.600;9.842;2023-03-20T07:56:30;9.73;;;6.07;;
45848;SDS011;31567;54.600;9.842;2023-03-20T08:00:10;10.40;;;6.18;;
45848;SDS011;31567;54.600;9.842;2023-03-20T08:03:50;9.20;;;5.88;;
45848;SDS011;31567;54.600;9.842;2023-03-20T08:07:29;13.07;;;6.20;;
45848;SDS011;31567;54.600;9.842;2023-03-20T08:11:09;12.23;;;6.18;;
45848;SDS011;31567;54.600;9.842;2023-03-20T08:14:49;11.32;;;6.32;;
45848;SDS011;31567;54.600;9.842;2023-03-20T08:18:30;14.38;;;6.32;;
45848;SDS011;31567;54.600;9.842;2023-03-20T08:22:09;13.38;;;7.13;;
45848;SDS011;31567;54.600;9.842;2023-03-20T08:25:49;11.50;;;7.22;;
45848;SDS011;31567;54.600;9.842;2023-03-20T08:29:30;13.65;;;6.93;;
45848;SDS011;31567;54.600;9.842;2023-03-20T08:33:09;13.43;;;7.10;;
45848;SDS011;31567;54.600;9.842;2023-03-20T08:36:49;14.38;;;7.40;;
45848;SDS011;31567;54.600;9.842;2023-03-20T08:40:30;19.90;;;7.90;;
45848;SDS011;31567;54.600;9.842;2023-03-20T08:44:11;20.08;;;8.60;;
45848;SDS011;31567;54.600;9.842;2023-03-20T08:47:51;13.07;;;7.13;;
45848;SDS011;31567;54.600;9.842;2023-03-20T08:51:31;17.70;;;7.65;;
45848;SDS011;31567;54.600;9.842;2023-03-20T08:55:11;13.05;;;7.03;;
45848;SDS011;31567;54.600;9.842;2023-03-20T08:58:52;15.95;;;8.20;;
45848;SDS011;31567;54.600;9.842;2023-03-20T09:02:33;16.63;;;8.05;;
45848;SDS011;31567;54.600;9.842;2023-03-20T09:06:13;13.50;;;7.57;;
45848;SDS011;31567;54.600;9.842;2023-03-20T09:09:53;17.80;;;7.85;;
45848;SDS011;31567;54.600;9.842;2023-03-20T09:13:33;13.40;;;7.47;;
45848;SDS011;31567;54.600;9.842;2023-03-20T09:17:13;17.63;;;7.80;;
45848;SDS011;31567;54.600;9.842;2023-03-20T09:20:52;17.08;;;8.50;;
45848;SDS011;31567;54.600;9.842;2023-03-20T09:24:34;16.00;;;7.97;;
45848;SDS011;31567;54.600;9.842;2023-03-20T09:28:13;13.93;;;7.43;;
45848;SDS011;31567;54.600;9.842;2023-03-20T09:31:53;12.95;;;8.00;;
45848;SDS011;31567;54.600;9.842;2023-03-20T09:35:33;15.63;;;8.32;;
45848;SDS011;31567;54.600;9.842;2023-03-20T09:39:12;14.20;;;8.48;;
45848;SDS011;31567;54.600;9.842;2023-03-20T09:50:43;13.40;;;9.45;;
45848;SDS011;31567;54.600;9.842;2023-03-20T09:54:40;13.43;;;9.30;;
45848;SDS011;31567;54.600;9.842;2023-03-20T09:58:26;13.45;;;9.27;;
45848;SDS011;31567;54.600;9.842;2023-03-20T10:02:13;13.57;;;9.15;;
45848;SDS011;31567;54.600;9.842;2023-03-20T10:06:04;15.52;;;8.90;;
45848;SDS011;31567;54.600;9.842;2023-03-20T10:09:49;17.65;;;10.82;;
45848;SDS011;31567;54.600;9.842;2023-03-20T10:13:34;13.40;;;9.63;;
45848;SDS011;31567;54.600;9.842;2023-03-20T10:21:23;12.15;;;9.00;;
45848;SDS011;31567;54.600;9.842;2023-03-20T10:25:42;13.85;;;10.38;;
45848;SDS011;31567;54.600;9.842;2023-03-20T10:29:32;13.55;;;9.77;;
45848;SDS011;31567;54.600;9.842;2023-03-20T10:41:53;18.45;;;9.60;;
45848;SDS011;31567;54.600;9.842;2023-03-20T10:45:38;19.48;;;9.70;;
45848;SDS011;31567;54.600;9.842;2023-03-20T10:53:06;15.10;;;8.60;;
45848;SDS011;31567;54.600;9.842;2023-03-20T10:56:46;15.60;;;9.32;;
45848;SDS011;31567;54.600;9.842;2023-03-20T11:00:27;14.00;;;8.98;;
45848;SDS011;31567;54.600;9.842;2023-03-20T11:04:07;16.95;;;9.25;;
45848;SDS011;31567;54.600;9.842;2023-03-20T11:07:48;11.82;;;8.82;;
45848;SDS011;31567;54.600;9.842;2023-03-20T11:11:33;13.50;;;9.48;;
45848;SDS011;31567;54.600;9.842;2023-03-20T11:19:06;14.82;;;9.52;;
45848;SDS011;31567;54.600;9.842;2023-03-20T11:22:48;15.02;;;10.43;;
45848;SDS011;31567;54.600;9.842;2023-03-20T11:30:18;15.25;;;10.75;;
45848;SDS011;31567;54.600;9.842;2023-03-20T11:37:53;19.38;;;11.25;;
45848;SDS011;31567;54.600;9.842;2023-03-20T11:41:34;18.83;;;11.55;;
45848;SDS011;31567;54.600;9.842;2023-03-20T11:45:22;18.40;;;11.70;;
45848;SDS011;31567;54.600;9.842;2023-03-20T11:49:14;17.42;;;12.23;;
45848;SDS011;31567;54.600;9.842;2023-03-20T11:57:00;23.45;;;13.73;;
45848;SDS011;31567;54.600;9.842;2023-03-20T12:00:40;22.70;;;13.68;;
45848;SDS011;31567;54.600;9.842;2023-03-20T12:04:31;26.05;;;13.40;;
45848;SDS011;31567;54.600;9.842;2023-03-20T12:08:14;23.05;;;13.23;;
45848;SDS011;31567;54.600;9.842;2023-03-20T12:16:04;24.42;;;14.10;;
45848;SDS011;31567;54.600;9.842;2023-03-20T12:19:55;23.27;;;14.00;;
45848;SDS011;31567;54.600;9.842;2023-03-20T12:27:35;20.08;;;13.68;;
45848;SDS011;31567;54.600;9.842;2023-03-20T12:31:22;20.67;;;14.02;;
45848;SDS011;31567;54.600;9.842;2023-03-20T12:35:10;25.92;;;14.82;;
45848;SDS011;31567;54.600;9.842;2023-03-20T12:38:57;21.67;;;13.25;;
45848;SDS011;31567;54.600;9.842;2023-03-20T12:42:40;23.60;;;14.60;;
45848;SDS011;31567;54.600;9.842;2023-03-20T12:50:59;21.55;;;14.93;;
45848;SDS011;31567;54.600;9.842;2023-03-20T12:58:59;23.55;;;12.80;;
45848;SDS011;31567;54.600;9.842;2023-03-20T13:06:53;21.75;;;12.95;;
45848;SDS011;31567;54.600;9.842;2023-03-20T13:10:38;22.48;;;13.10;;
45848;SDS011;31567;54.600;9.842;2023-03-20T13:14:30;22.55;;;13.18;;
45848;SDS011;31567;54.600;9.842;2023-03-20T13:30:20;18.67;;;9.52;;
45848;SDS011;31567;54.600;9.842;2023-03-20T13:37:54;19.65;;;11.73;;
45848;SDS011;31567;54.600;9.842;2023-03-20T13:41:38;22.25;;;10.60;;
45848;SDS011;31567;54.600;9.842;2023-03-20T13:45:20;18.83;;;10.90;;
45848;SDS011;31567;54.600;9.842;2023-03-20T13:49:13;18.15;;;10.38;;
45848;SDS011;31567;54.600;9.842;2023-03-20T13:53:03;17.20;;;10.60;;
45848;SDS011;31567;54.600;9.842;2023-03-20T14:01:04;18.17;;;9.30;;
45848;SDS011;31567;54.600;9.842;2023-03-20T14:04:58;20.60;;;9.80;;
45848;SDS011;31567;54.600;9.842;2023-03-20T14:09:00;17.25;;;9.38;;
45848;SDS011;31567;54.600;9.842;2023-03-20T14:12:39;18.85;;;9.45;;
45848;SDS011;31567;54.600;9.842;2023-03-20T14:16:20;18.23;;;9.43;;
45848;SDS011;31567;54.600;9.842;2023-03-20T14:20:09;16.40;;;9.20;;
45848;SDS011;31567;54.600;9.842;2023-03-20T14:24:04;18.65;;;10.15;;
45848;SDS011;31567;54.600;9.842;2023-03-20T14:27:55;16.58;;;10.38;;
45848;SDS011;31567;54.600;9.842;2023-03-20T14:31:38;20.10;;;9.95;;
45848;SDS011;31567;54.600;9.842;2023-03-20T14:35:24;18.17;;;10.25;;
45848;SDS011;31567;54.600;9.842;2023-03-20T14:39:10;19.65;;;10.77;;
45848;SDS011;31567;54.600;9.842;2023-03-20T14:43:14;22.45;;;11.10;;
45848;SDS011;31567;54.600;9.842;2023-03-20T14:47:09;18.38;;;10.60;;
45848;SDS011;31567;54.600;9.842;2023-03-20T14:51:05;19.40;;;10.43;;
45848;SDS011;31567;54.600;9.842;2023-03-20T14:55:13;17.70;;;9.77;;
45848;SDS011;31567;54.600;9.842;2023-03-20T14:59:01;14.82;;;8.77;;
45848;SDS011;31567;54.600;9.842;2023-03-20T15:02:45;17.25;;;9.52;;
45848;SDS011;31567;54.600;9.842;2023-03-20T15:06:28;18.63;;;8.98;;
45848;SDS011;31567;54.600;9.842;2023-03-20T15:10:09;15.57;;;9.07;;
45848;SDS011;31567;54.600;9.842;2023-03-20T15:13:49;19.25;;;8.93;;
45848;SDS011;31567;54.600;9.842;2023-03-20T15:17:34;20.02;;;8.48;;
45848;SDS011;31567;54.600;9.842;2023-03-20T15:21:15;17.38;;;8.38;;
45848;SDS011;31567;54.600;9.842;2023-03-20T15:24:56;21.92;;;8.98;;
45848;SDS011;31567;54.600;9.842;2023-03-20T15:28:36;14.45;;;7.80;;
45848;SDS011;31567;54.600;9.842;2023-03-20T15:32:16;20.17;;;8.68;;
45848;SDS011;31567;54.600;9.842;2023-03-20T15:35:56;14.98;;;8.23;;
45848;SDS011;31567;54.600;9.842;2023-03-20T15:39:41;14.07;;;7.63;;
45848;SDS011;31567;54.600;9.842;2023-03-20T15:43:24;15.55;;;9.93;;
45848;SDS011;31567;54.600;9.842;2023-03-20T15:47:15;22.63;;;10.50;;
45848;SDS011;31567;54.600;9.842;2023-03-20T15:50:59;17.02;;;8.07;;
45848;SDS011;31567;54.600;9.842;2023-03-20T15:54:42;18.65;;;9.48;;
45848;SDS011;31567;54.600;9.842;2023-03-20T15:58:22;20.52;;;9.55;;
45848;SDS011;31567;54.600;9.842;2023-03-20T16:02:07;17.45;;;8.50;;
45848;SDS011;31567;54.600;9.842;2023-03-20T16:05:49;17.13;;;9.80;;
45848;SDS011;31567;54.600;9.842;2023-03-20T16:09:42;16.13;;;7.70;;
45848;SDS011;31567;54.600;9.842;2023-03-20T16:13:22;20.08;;;10.63;;
45848;SDS011;31567;54.600;9.842;2023-03-20T16:17:03;17.65;;;10.30;;
45848;SDS011;31567;54.600;9.842;2023-03-20T16:20:53;25.67;;;9.00;;
45848;SDS011;31567;54.600;9.842;2023-03-20T16:24:37;20.30;;;9.45;;
45848;SDS011;31567;54.600;9.842;2023-03-20T16:28:18;18.33;;;9.85;;
45848;SDS011;31567;54.600;9.842;2023-03-20T16:32:01;21.30;;;10.15;;
45848;SDS011;31567;54.600;9.842;2023-03-20T16:35:58;24.20;;;10.63;;
45848;SDS011;31567;54.600;9.842;2023-03-20T16:39:39;18.15;;;9.60;;
45848;SDS011;31567;54.600;9.842;2023-03-20T16:43:20;20.13;;;9.52;;
45848;SDS011;31567;54.600;9.842;2023-03-20T16:47:21;19.10;;;9.20;;
45848;SDS011;31567;54.600;9.842;2023-03-20T16:51:36;17.40;;;8.43;;
45848;SDS011;31567;54.600;9.842;2023-03-20T16:55:11;14.98;;;7.70;;
45848;SDS011;31567;54.600;9.842;2023-03-20T16:58:54;21.45;;;7.07;;
45848;SDS011;31567;54.600;9.842;2023-03-20T17:02:35;16.85;;;7.28;;
45848;SDS011;31567;54.600;9.842;2023-03-20T17:10:09;14.90;;;7.38;;
45848;SDS011;31567;54.600;9.842;2023-03-20T17:13:58;14.27;;;7.28;;
45848;SDS011;31567;54.600;9.842;2023-03-20T17:17:38;16.92;;;7.10;;
45848;SDS011;31567;54.600;9.842;2023-03-20T17:21:18;19.42;;;7.47;;
45848;SDS011;31567;54.600;9.842;2023-03-20T17:24:58;12.73;;;6.93;;
45848;SDS011;31567;54.600;9.842;2023-03-20T17:28:38;20.73;;;7.63;;
45848;SDS011;31567;54.600;9.842;2023-03-20T17:32:18;17.35;;;8.52;;
45848;SDS011;31567;54.600;9.842;2023-03-20T17:36:01;16.10;;;7.68;;
45848;SDS011;31567;54.600;9.842;2023-03-20T17:39:41;14.80;;;8.00;;
45848;SDS011;31567;54.600;9.842;2023-03-20T17:43:21;14.60;;;7.57;;
45848;SDS011;31567;54.600;9.842;2023-03-20T17:47:01;15.43;;;7.68;;
45848;SDS011;31567;54.600;9.842;2023-03-20T17:50:42;17.42;;;8.55;;
45848;SDS011;31567;54.600;9.842;2023-03-20T17:54:22;23.35;;;9.68;;
45848;SDS011;31567;54.600;9.842;2023-03-20T17:58:02;16.63;;;9.27;;
45848;SDS011;31567;54.600;9.842;2023-03-20T18:01:41;17.95;;;9.27;;
45848;SDS011;31567;54.600;9.842;2023-03-20T18:05:21;14.27;;;9.18;;
45848;SDS011;31567;54.600;9.842;2023-03-20T18:09:00;18.92;;;9.90;;
45848;SDS011;31567;54.600;9.842;2023-03-20T18:12:40;21.48;;;9.85;;
45848;SDS011;31567;54.600;9.842;2023-03-20T18:16:23;25.13;;;9.90;;
45848;SDS011;31567;54.600;9.842;2023-03-20T18:20:04;16.67;;;9.70;;
45848;SDS011;31567;54.600;9.842;2023-03-20T18:23:44;21.63;;;9.85;;
45848;SDS011;31567;54.600;9.842;2023-03-20T18:27:24;23.80;;;9.98;;
45848;SDS011;31567;54.600;9.842;2023-03-20T18:31:04;21.70;;;9.57;;
45848;SDS011;31567;54.600;9.842;2023-03-20T18:34:43;19.95;;;9.55;;
45848;SDS011;31567;54.600;9.842;2023-03-20T18:38:23;25.52;;;9.77;;
45848;SDS011;31567;54.600;9.842;2023-03-20T18:42:03;19.70;;;10.02;;
45848;SDS011;31567;54.600;9.842;2023-03-20T18:45:43;29.08;;;10.48;;
45848;SDS011;31567;54.600;9.842;2023-03-20T18:49:22;23.70;;;9.15;;
45848;SDS011;31567;54.600;9.842;2023-03-20T18:53:03;20.13;;;9.07;;
45848;SDS011;31567;54.600;9.842;2023-03-20T18:56:43;25.80;;;9.48;;
45848;SDS011;31567;54.600;9.842;2023-03-20T19:00:25;22.90;;;9.45;;
45848;SDS011;31567;54.600;9.842;2023-03-20T19:04:07;26.25;;;11.20;;
45848;SDS011;31567;54.600;9.842;2023-03-20T19:07:47;17.17;;;9.40;;
45848;SDS011;31567;54.600;9.842;2023-03-20T19:11:27;16.67;;;8.32;;
45848;SDS011;31567;54.600;9.842;2023-03-20T19:15:07;15.40;;;8.23;;
45848;SDS011;31567;54.600;9.842;2023-03-20T19:18:47;16.25;;;7.45;;
45848;SDS011;31567;54.600;9.842;2023-03-20T19:22:27;16.40;;;8.00;;
45848;SDS011;31567;54.600;9.842;2023-03-20T19:26:11;14.10;;;7.43;;
45848;SDS011;31567;54.600;9.842;2023-03-20T19:29:54;16.83;;;7.07;;
45848;SDS011;31567;54.600;9.842;2023-03-20T19:33:35;17.17;;;8.00;;
45848;SDS011;31567;54.600;9.842;2023-03-20T19:37:16;15.27;;;8.43;;
45848;SDS011;31567;54.600;9.842;2023-03-20T19:40:55;13.80;;;9.32;;
45848;SDS011;31567;54.600;9.842;2023-03-20T19:44:35;17.30;;;8.90;;
45848;SDS011;31567;54.600;9.842;2023-03-20T19:48:16;17.90;;;10.43;;
45848;SDS011;31567;54.600;9.842;2023-03-20T19:52:00;20.80;;;11.35;;
45848;SDS011;31567;54.600;9.842;2023-03-20T19:55:42;21.45;;;10.20;;
45848;SDS011;31567;54.600;9.842;2023-03-20T19:59:22;21.20;;;10.43;;
45848;SDS011;31567;54.600;9.842;2023-03-20T20:03:02;20.85;;;10.80;;
45848;SDS011;31567;54.600;9.842;2023-03-20T20:06:43;19.38;;;10.52;;
45848;SDS011;31567;54.600;9.842;2023-03-20T20:10:23;17.75;;;10.88;;
45848;SDS011;31567;54.600;9.842;2023-03-20T20:14:05;15.57;;;10.73;;
45848;SDS011;31567;54.600;9.842;2023-03-20T20:17:45;17.08;;;11.05;;
45848;SDS011;31567;54.600;9.842;2023-03-20T20:21:26;14.05;;;9.70;;
45848;SDS011;31567;54.600;9.842;2023-03-20T20:25:06;14.88;;;10.52;;
45848;SDS011;31567;54.600;9.842;2023-03-20T20:28:46;14.82;;;10.75;;
45848;SDS011;31567;54.600;9.842;2023-03-20T20:32:27;14.30;;;10.18;;
45848;SDS011;31567;54.600;9.842;2023-03-20T20:36:08;14.98;;;10.77;;
45848;SDS011;31567;54.600;9.842;2023-03-20T20:39:49;15.73;;;11.07;;
45848;SDS011;31567;54.600;9.842;2023-03-20T20:43:29;15.73;;;9.95;;
45848;SDS011;31567;54.600;9.842;2023-03-20T20:47:08;14.38;;;9.98;;
45848;SDS011;31567;54.600;9.842;2023-03-20T20:50:49;13.57;;;9.50;;
45848;SDS011;31567;54.600;9.842;2023-03-20T20:54:31;11.35;;;9.10;;
45848;SDS011;31567;54.600;9.842;2023-03-20T20:58:12;14.18;;;8.52;;
45848;SDS011;31567;54.600;9.842;2023-03-20T21:01:51;11.80;;;8.13;;
45848;SDS011;31567;54.600;9.842;2023-03-20T21:05:32;12.27;;;8.35;;
45848;SDS011;31567;54.600;9.842;2023-03-20T21:09:12;9.45;;;7.43;;
45848;SDS011;31567;54.600;9.842;2023-03-20T21:12:52;9.50;;;8.05;;
45848;SDS011;31567;54.600;9.842;2023-03-20T21:16:32;11.40;;;8.13;;
45848;SDS011;31567;54.600;9.842;2023-03-20T21:20:11;12.93;;;8.00;;
45848;SDS011;31567;54.600;9.842;2023-03-20T21:23:51;8.35;;;6.97;;
45848;SDS011;31567;54.600;9.842;2023-03-20T21:27:30;8.68;;;6.97;;
45848;SDS011;31567;54.600;9.842;2023-03-20T21:31:10;8.43;;;7.13;;
45848;SDS011;31567;54.600;9.842;2023-03-20T21:35:00;10.18;;;7.57;;
45848;SDS011;31567;54.600;9.842;2023-03-20T21:38:41;8.60;;;7.70;;
45848;SDS011;31567;54.600;9.842;2023-03-20T21:42:21;10.40;;;8.07;;
45848;SDS011;31567;54.600;9.842;2023-03-20T21:46:00;9.77;;;7.93;;
45848;SDS011;31567;54.600;9.842;2023-03-20T21:49:40;9.68;;;7.90;;
45848;SDS011;31567;54.600;9.842;2023-03-20T21:53:20;9.45;;;7.00;;
45848;SDS011;31567;54.600;9.842;2023-03-20T21:56:59;9.25;;;6.82;;
45848;SDS011;31567;54.600;9.842;2023-03-20T22:00:39;6.93;;;6.18;;
45848;SDS011;31567;54.600;9.842;2023-03-20T22:04:18;7.45;;;6.22;;
45848;SDS011;31567;54.600;9.842;2023-03-20T22:07:58;8.35;;;6.70;;
45848;SDS011;31567;54.600;9.842;2023-03-20T22:11:38;10.25;;;7.38;;
45848;SDS011;31567;54.600;9.842;2023-03-20T22:15:17;8.35;;;7.53;;
45848;SDS011;31567;54.600;9.842;2023-03-20T22:18:57;9.35;;;7.32;;
45848;SDS011;31567;54.600;9.842;2023-03-20T22:22:36;9.32;;;8.15;;
45848;SDS011;31567;54.600;9.842;2023-03-20T22:26:16;9.82;;;7.40;;
45848;SDS011;31567;54.600;9.842;2023-03-20T22:29:55;8.90;;;7.30;;
45848;SDS011;31567;54.600;9.842;2023-03-20T22:33:35;8.07;;;6.80;;
45848;SDS011;31567;54.600;9.842;2023-03-20T22:37:15;7.72;;;6.35;;
45848;SDS011;31567;54.600;9.842;2023-03-20T22:40:55;9.13;;;6.82;;
45848;SDS011;31567;54.600;9.842;2023-03-20T22:44:35;9.18;;;6.32;;
45848;SDS011;31567;54.600;9.842;2023-03-20T22:48:15;6.97;;;6.10;;
45848;SDS011;31567;54.600;9.842;2023-03-20T22:51:56;8.32;;;6.50;;
45848;SDS011;31567;54.600;9.842;2023-03-20T22:55:35;7.55;;;6.35;;
45848;SDS011;31567;54.600;9.842;2023-03-20T22:59:15;7.47;;;6.30;;
45848;SDS011;31567;54.600;9.842;2023-03-20T23:02:54;8.65;;;6.00;;
45848;SDS011;31567;54.600;9.842;2023-03-20T23:06:34;8.02;;;6.15;;
45848;SDS011;31567;54.600;9.842;2023-03-20T23:10:14;8.50;;;6.35;;
45848;SDS011;31567;54.600;9.842;2023-03-20T23:13:53;8.35;;;6.53;;
45848;SDS011;31567;54.600;9.842;2023-03-20T23:17:33;7.93;;;7.00;;
45848;SDS011;31567;54.600;9.842;2023-03-20T23:21:13;7.80;;;6.65;;
45848;SDS011;31567;54.600;9.842;2023-03-20T23:24:53;7.72;;;6.88;;
45848;SDS011;31567;54.600;9.842;2023-03-20T23:28:33;8.30;;;6.57;;
45848;SDS011;31567;54.600;9.842;2023-03-20T23:32:13;11.48;;;7.97;;
45848;SDS011;31567;54.600;9.842;2023-03-20T23:35:56;8.50;;;7.10;;
45848;SDS011;31567;54.600;9.842;2023-03-20T23:39:36;8.95;;;7.07;;
45848;SDS011;31567;54.600;9.842;2023-03-20T23:43:16;10.10;;;7.70;;
45848;SDS011;31567;54.600;9.842;2023-03-20T23:46:55;11.13;;;8.50;;
45848;SDS011;31567;54.600;9.842;2023-03-20T23:50:35;11.82;;;8.65;;
45848;SDS011;31567;54.600;9.842;2023-03-20T23:54:15;12.32;;;8.70;;
45848;SDS011;31567;54.600;9.842;2023-03-20T23:57:54;10.85;;;8.85;;
